createdAt,value
2018-10-02T04:00:53.540Z,98.60
2018-10-02T04:03:21.662Z,98.90
2018-10-02T04:05:50.999Z,99.30
2018-10-02T04:08:19.767Z,99.80
2018-10-02T04:10:48.640Z,99.70
2018-10-02T04:13:16.940Z,99.90
2018-10-02T04:15:44.939Z,99.90
2018-10-02T04:18:13.089Z,99.90
2018-10-02T04:20:41.422Z,99.70
2018-10-02T04:23:09.459Z,99.80
2018-10-02T04:25:37.607Z,99.90
2018-10-02T04:28:06.603Z,99.90
2018-10-02T04:30:34.679Z,99.90
2018-10-02T04:33:02.768Z,99.70
2018-10-02T04:35:30.875Z,98.80
2018-10-02T04:37:59.828Z,98.80
2018-10-02T04:40:28.103Z,99.30
2018-10-02T04:42:56.275Z,99.10
2018-10-02T04:45:24.401Z,98.80
2018-10-02T04:47:53.424Z,98.70
2018-10-02T04:50:22.215Z,98.30
2018-10-02T04:52:50.367Z,98.20
2018-10-02T04:55:19.703Z,98.50
2018-10-02T04:57:48.175Z,98.50
2018-10-02T05:00:16.849Z,98.60
2018-10-02T05:02:44.938Z,98.30
2018-10-02T05:05:13.336Z,98.20
2018-10-02T05:07:41.437Z,98.10
2018-10-02T05:10:10.825Z,97.50
2018-10-02T05:12:41.222Z,97.80
2018-10-02T05:15:09.384Z,97.60
2018-10-02T05:17:39.288Z,97.70
2018-10-02T05:20:07.573Z,98.00
2018-10-02T05:22:35.652Z,98.30
2018-10-02T05:25:03.802Z,98.10
2018-10-02T05:27:32.018Z,97.90
2018-10-02T05:30:00.068Z,98.00
2018-10-02T05:32:28.293Z,97.80
2018-10-02T05:34:56.443Z,97.60
2018-10-02T05:37:24.510Z,97.50
2018-10-02T05:39:54.087Z,97.60
2018-10-02T05:42:22.163Z,97.30
2018-10-02T05:44:50.744Z,97.20
2018-10-02T05:47:21.112Z,97.10
2018-10-02T05:49:49.628Z,96.90
2018-10-02T05:52:18.163Z,96.70
2018-10-02T05:54:46.448Z,96.50
2018-10-02T05:57:14.591Z,95.70
2018-10-02T05:59:42.695Z,95.00
2018-10-02T06:02:10.816Z,95.00
2018-10-02T06:04:38.951Z,94.80
2018-10-02T06:07:07.148Z,94.50
2018-10-02T06:09:35.238Z,94.40
2018-10-02T06:12:03.339Z,93.90
2018-10-02T06:14:31.423Z,92.50
2018-10-02T06:17:00.582Z,92.40
2018-10-02T06:19:28.666Z,92.40
2018-10-02T06:21:56.990Z,92.10
2018-10-02T06:24:26.264Z,92.50
2018-10-02T06:26:54.382Z,92.10
2018-10-02T06:29:22.481Z,91.80
2018-10-02T06:31:50.568Z,92.10
2018-10-02T06:34:19.774Z,90.70
2018-10-02T06:36:48.648Z,90.50
2018-10-02T06:39:17.168Z,90.30
2018-10-02T06:41:45.676Z,90.90
2018-10-02T06:44:13.706Z,89.70
2018-10-02T06:46:41.808Z,89.40
2018-10-02T06:49:10.512Z,89.50
2018-10-02T06:51:40.228Z,90.40
2018-10-02T06:54:08.899Z,89.30
2018-10-02T06:56:37.176Z,89.80
2018-10-02T06:59:05.328Z,89.00
2018-10-02T07:01:33.490Z,89.30
2018-10-02T07:04:01.582Z,89.00
2018-10-02T07:06:30.122Z,88.70
2018-10-02T07:08:59.177Z,89.00
2018-10-02T07:11:28.361Z,88.30
2018-10-02T07:13:58.592Z,88.00
2018-10-02T07:16:27.080Z,87.80
2018-10-02T07:18:55.207Z,87.50
2018-10-02T07:21:23.772Z,87.50
2018-10-02T07:23:57.935Z,86.50
2018-10-02T07:26:26.799Z,86.90
2018-10-02T07:28:54.804Z,87.00
2018-10-02T07:31:22.874Z,85.50
2018-10-02T07:33:51.011Z,85.70
2018-10-02T07:36:19.096Z,86.60
2018-10-02T07:38:50.269Z,86.20
2018-10-02T07:41:18.648Z,86.50
2018-10-02T07:43:47.863Z,86.90
2018-10-02T07:46:16.650Z,87.10
2018-10-02T07:48:44.741Z,86.50
2018-10-02T07:51:12.856Z,86.60
2018-10-02T07:53:41.017Z,86.50
2018-10-02T07:56:12.247Z,87.40
2018-10-02T07:58:40.976Z,86.80
2018-10-02T08:01:09.406Z,87.60
2018-10-02T08:03:38.272Z,87.40
2018-10-02T08:06:07.492Z,88.60
2018-10-02T08:08:37.005Z,89.80
2018-10-02T08:11:05.112Z,89.80
2018-10-02T08:13:33.227Z,88.50
2018-10-02T08:16:02.385Z,88.40
2018-10-02T08:18:30.522Z,89.20
2018-10-02T08:20:58.835Z,89.30
2018-10-02T08:23:27.125Z,87.20
2018-10-02T08:25:55.209Z,86.80
2018-10-02T08:28:23.296Z,88.90
2018-10-02T08:30:52.192Z,87.50
2018-10-02T08:33:21.369Z,88.60
2018-10-02T08:35:49.903Z,88.20
2018-10-02T08:38:18.151Z,90.00
2018-10-02T08:40:46.564Z,88.70
2018-10-02T08:43:14.686Z,88.90
2018-10-02T08:45:42.810Z,89.70
2018-10-02T08:48:11.597Z,89.20
2018-10-02T08:50:39.716Z,89.30
2018-10-02T08:53:07.961Z,88.30
2018-10-02T08:55:36.266Z,88.20
2018-10-02T08:58:04.392Z,88.30
2018-10-02T09:00:32.529Z,88.40
2018-10-02T09:03:01.688Z,87.50
2018-10-02T09:05:30.345Z,87.90
2018-10-02T09:07:58.775Z,86.50
2018-10-02T09:10:27.214Z,86.70
2018-10-02T09:12:55.294Z,88.20
2018-10-02T09:15:24.130Z,88.50
2018-10-02T09:17:52.228Z,87.10
2018-10-02T09:20:20.928Z,88.00
2018-10-02T09:22:57.903Z,85.50
2018-10-02T09:25:26.311Z,87.30
2018-10-02T09:27:54.494Z,86.40
2018-10-02T09:30:28.146Z,84.50
2018-10-02T09:33:01.518Z,83.20
2018-10-02T09:35:35.061Z,82.50
2018-10-02T09:38:08.592Z,82.80
2018-10-02T09:40:54.219Z,83.30
2018-10-02T09:43:43.964Z,80.60
2018-10-02T09:46:12.075Z,80.50
2018-10-02T09:48:40.396Z,81.00
2018-10-02T09:51:08.996Z,82.10
2018-10-02T09:53:38.296Z,82.90
2018-10-02T09:56:06.586Z,82.60
2018-10-02T09:58:36.364Z,82.10
2018-10-02T10:01:13.685Z,82.30
2018-10-02T10:03:41.787Z,80.10
2018-10-02T10:06:09.899Z,81.90
2018-10-02T10:08:38.665Z,81.80
2018-10-02T10:11:06.991Z,80.50
2018-10-02T10:13:35.505Z,79.90
2018-10-02T10:16:03.837Z,79.70
2018-10-02T10:18:32.769Z,80.60
2018-10-02T10:21:00.933Z,81.40
2018-10-02T10:23:29.072Z,83.10
2018-10-02T10:25:58.085Z,81.40
2018-10-02T10:28:26.577Z,82.90
2018-10-02T10:30:55.086Z,99.90
2018-10-02T10:33:23.870Z,99.90
2018-10-02T10:36:13.003Z,99.90
2018-10-02T10:41:34.054Z,99.90
2018-10-02T10:44:03.235Z,99.90
2018-10-02T10:46:32.045Z,99.90
2018-10-02T10:49:00.202Z,99.90
2018-10-02T10:51:29.350Z,99.90
2018-10-02T10:53:58.151Z,99.90
2018-10-02T10:56:27.012Z,99.10
2018-10-02T10:58:55.560Z,97.50
2018-10-02T11:01:23.635Z,97.50
2018-10-02T11:03:51.719Z,97.30
2018-10-02T11:06:19.895Z,97.00
2018-10-02T11:08:48.501Z,94.90
2018-10-02T11:11:16.902Z,93.70
2018-10-02T11:13:44.997Z,94.70
2018-10-02T11:16:13.196Z,95.50
2018-10-02T11:18:41.290Z,95.00
2018-10-02T11:21:09.374Z,96.10
2018-10-02T11:23:38.081Z,96.50
2018-10-02T11:26:06.507Z,98.70
2018-10-02T11:28:34.604Z,97.40
2018-10-02T11:31:03.238Z,98.10
2018-10-02T11:33:31.284Z,99.50
2018-10-02T11:35:59.404Z,99.40
2018-10-02T11:38:27.648Z,99.60
2018-10-02T11:40:55.782Z,99.90
2018-10-02T11:43:24.023Z,98.50
2018-10-02T11:45:54.979Z,99.30
2018-10-02T11:48:23.094Z,97.50
2018-10-02T11:50:51.285Z,97.50
2018-10-02T11:53:19.361Z,97.70
2018-10-02T11:55:47.964Z,97.70
2018-10-02T11:58:16.532Z,98.00
2018-10-02T12:00:44.650Z,98.30
2018-10-02T12:03:12.769Z,99.20
2018-10-02T12:05:41.203Z,99.90
2018-10-02T12:08:09.283Z,99.90
2018-10-02T12:10:37.955Z,99.90
2018-10-02T12:13:06.786Z,99.90
2018-10-02T12:15:35.429Z,99.90
2018-10-02T12:18:14.797Z,99.90
2018-10-02T12:20:42.899Z,99.90
2018-10-02T12:23:11.103Z,99.90
2018-10-02T12:25:40.316Z,99.90
2018-10-02T12:28:08.497Z,99.90
2018-10-02T12:30:37.752Z,99.90
2018-10-02T12:33:07.064Z,99.90
2018-10-02T12:35:35.384Z,99.90
2018-10-02T12:38:03.504Z,99.90
2018-10-02T12:40:31.640Z,99.90
2018-10-02T12:42:59.723Z,99.90
2018-10-02T12:45:27.823Z,99.90
2018-10-02T12:47:59.199Z,99.90
2018-10-02T12:50:27.903Z,99.90
2018-10-02T12:52:56.054Z,99.90
2018-10-02T12:55:24.116Z,99.90
2018-10-02T12:57:52.378Z,99.90
2018-10-02T13:00:20.798Z,99.90
2018-10-02T13:02:49.468Z,99.90
2018-10-02T13:05:28.915Z,99.90
2018-10-02T13:07:57.005Z,99.90
2018-10-02T13:10:25.468Z,99.90
2018-10-02T13:12:53.623Z,99.90
2018-10-02T13:15:22.809Z,99.90
2018-10-02T13:17:52.052Z,99.90
2018-10-02T13:20:21.161Z,99.90
2018-10-02T13:22:49.503Z,99.90
2018-10-02T13:25:18.064Z,99.90
2018-10-02T13:27:51.850Z,99.90
2018-10-02T13:30:19.940Z,99.90
2018-10-02T13:32:49.148Z,99.90
2018-10-02T13:35:17.638Z,99.90
2018-10-02T13:37:52.145Z,99.90
2018-10-02T13:40:20.583Z,99.90
2018-10-02T13:42:48.773Z,99.90
2018-10-02T13:45:17.811Z,99.90
2018-10-02T13:47:45.920Z,99.90
2018-10-02T13:50:14.012Z,99.90
2018-10-02T13:52:42.421Z,99.90
2018-10-02T13:55:10.573Z,99.90
2018-10-02T13:57:38.724Z,99.90
2018-10-02T14:00:07.521Z,99.90
2018-10-02T14:02:36.163Z,99.90
2018-10-02T14:05:04.294Z,99.90
2018-10-02T14:07:32.421Z,99.90
2018-10-02T14:10:10.559Z,99.90
2018-10-02T14:12:38.935Z,99.90
2018-10-02T14:15:09.772Z,99.70
2018-10-02T14:17:37.988Z,99.50
2018-10-02T14:20:07.275Z,98.50
2018-10-02T14:22:35.553Z,98.90
2018-10-02T14:25:03.615Z,98.20
2018-10-02T14:27:31.763Z,98.90
2018-10-02T14:29:59.915Z,99.60
2018-10-02T14:32:28.792Z,98.40
2018-10-02T14:34:57.074Z,97.70
2018-10-02T14:37:25.139Z,96.70
2018-10-02T14:39:53.211Z,97.40
2018-10-02T14:42:22.312Z,96.70
2018-10-02T14:44:50.453Z,97.60
2018-10-02T14:47:18.824Z,96.90
2018-10-02T14:49:47.301Z,96.80
2018-10-02T14:52:15.499Z,96.30
2018-10-02T14:54:43.629Z,95.60
2018-10-02T14:57:12.495Z,96.30
2018-10-02T14:59:40.617Z,95.80
2018-10-02T15:02:08.987Z,95.60
2018-10-02T15:04:38.461Z,95.30
2018-10-02T15:07:12.197Z,95.40
2018-10-02T15:09:41.441Z,94.80
2018-10-02T15:12:09.604Z,94.80
2018-10-02T15:14:37.976Z,95.10
2018-10-02T15:17:06.064Z,94.90
2018-10-02T15:19:34.191Z,95.00
2018-10-02T15:22:02.324Z,95.00
2018-10-02T15:24:30.464Z,95.00
2018-10-02T15:26:59.088Z,95.10
2018-10-02T15:29:27.181Z,94.90
2018-10-02T15:31:59.546Z,95.40
2018-10-02T15:34:27.899Z,94.80
2018-10-02T15:36:56.092Z,95.00
2018-10-02T15:39:24.179Z,94.90
2018-10-02T15:41:52.767Z,94.70
2018-10-02T15:44:20.924Z,95.00
2018-10-02T15:46:49.061Z,95.00
2018-10-02T15:49:17.237Z,95.40
2018-10-02T15:51:45.600Z,95.00
2018-10-02T15:54:15.194Z,95.00
2018-10-02T15:56:43.466Z,95.50
2018-10-02T15:59:11.595Z,95.50
2018-10-02T16:01:39.716Z,95.70
2018-10-02T16:04:08.147Z,94.90
2018-10-02T16:06:36.353Z,95.40
2018-10-02T16:09:05.508Z,95.80
2018-10-02T16:11:33.640Z,95.80
2018-10-02T16:14:01.667Z,95.60
2018-10-02T16:16:30.462Z,95.60
2018-10-02T16:18:58.963Z,95.70
2018-10-02T16:21:27.208Z,96.30
2018-10-02T16:23:55.320Z,95.80
2018-10-02T16:26:23.424Z,96.50
2018-10-02T16:28:51.520Z,96.20
2018-10-02T16:31:20.893Z,96.40
2018-10-02T16:33:49.028Z,96.30
2018-10-02T16:36:17.194Z,96.00
2018-10-02T16:38:49.256Z,96.00
2018-10-02T16:41:17.691Z,95.90
2018-10-02T16:43:46.424Z,95.40
2018-10-02T16:46:14.593Z,95.60
2018-10-02T16:48:45.008Z,95.80
2018-10-02T16:51:14.113Z,95.70
2018-10-02T16:53:42.236Z,95.60
2018-10-02T16:56:11.103Z,96.00
2018-10-02T16:58:39.440Z,96.20
2018-10-02T17:01:08.152Z,95.90
2018-10-02T17:03:44.147Z,96.10
2018-10-02T17:06:28.116Z,96.30
2018-10-02T18:01:08.748Z,96.90
2018-10-02T18:03:36.948Z,96.80
2018-10-02T18:06:05.069Z,96.70
2018-10-02T18:08:33.165Z,97.00
2018-10-02T18:11:01.263Z,96.80
2018-10-02T18:13:30.083Z,96.50
2018-10-02T18:16:01.681Z,96.70
2018-10-02T18:18:30.091Z,96.80
2018-10-02T18:20:58.611Z,96.80
2018-10-02T18:23:26.759Z,96.80
2018-10-02T18:25:54.900Z,96.80
2018-10-02T18:28:27.616Z,96.80
2018-10-02T18:30:58.717Z,96.70
2018-10-02T18:33:27.688Z,96.70
2018-10-02T18:35:56.418Z,96.90
2018-10-02T18:38:31.195Z,96.70
2018-10-02T18:41:03.614Z,97.00
2018-10-02T18:43:33.719Z,97.00
2018-10-02T18:46:03.329Z,97.10
2018-10-02T18:48:32.350Z,96.90
2018-10-02T18:51:05.318Z,96.70
2018-10-02T18:53:35.457Z,97.00
2018-10-02T18:56:04.650Z,97.00
2018-10-02T18:58:33.749Z,96.80
2018-10-02T19:01:05.171Z,97.10
2018-10-02T19:03:33.383Z,97.00
2018-10-02T19:06:03.333Z,97.10
2018-10-02T19:08:37.511Z,98.40
2018-10-02T19:11:11.325Z,97.10
2018-10-02T19:13:41.624Z,97.40
2018-10-02T19:16:18.966Z,97.50
2018-10-02T19:18:48.197Z,97.70
2018-10-02T19:21:17.940Z,97.70
2018-10-02T19:23:51.097Z,97.70
2018-10-02T19:26:23.667Z,97.80
2018-10-02T19:28:53.625Z,97.60
2018-10-02T19:31:33.923Z,97.70
2018-10-02T19:34:03.128Z,97.90
2018-10-02T19:36:33.926Z,98.00
2018-10-02T19:39:08.253Z,98.10
2018-10-02T19:41:40.903Z,98.10
2018-10-02T19:44:12.577Z,98.20
2018-10-02T19:46:47.216Z,98.10
2018-10-02T19:49:20.321Z,98.20
2018-10-02T19:51:53.974Z,98.00
2018-10-02T19:54:23.483Z,98.20
2018-10-02T19:56:53.301Z,98.50
2018-10-02T19:59:22.114Z,98.30
2018-10-02T20:01:51.324Z,98.30
2018-10-02T20:04:19.622Z,98.20
2018-10-02T20:06:48.398Z,98.40
2018-10-02T20:09:16.835Z,98.70
2018-10-02T20:11:44.997Z,98.40
2018-10-02T20:14:13.694Z,98.20
2018-10-02T20:16:41.853Z,98.20
2018-10-02T20:19:10.588Z,98.00
2018-10-02T20:21:39.757Z,98.00
2018-10-02T20:24:08.604Z,98.00
2018-10-02T20:26:36.830Z,98.20
2018-10-02T20:29:04.957Z,97.90
2018-10-02T20:31:36.996Z,98.20
2018-10-02T20:34:05.343Z,97.90
2018-10-02T20:36:33.666Z,97.90
2018-10-02T20:39:02.364Z,97.70
2018-10-02T20:41:30.735Z,97.80
2018-10-02T20:43:59.905Z,97.50
2018-10-02T20:46:29.261Z,97.50
2018-10-02T20:48:59.417Z,97.30
2018-10-02T20:51:29.431Z,97.50
2018-10-02T20:53:59.538Z,97.80
2018-10-02T20:56:29.870Z,97.90
2018-10-02T20:59:00.237Z,98.10
2018-10-02T21:01:30.960Z,98.20
2018-10-02T21:04:01.060Z,98.70
2018-10-02T21:06:30.362Z,98.80
2018-10-02T21:09:02.117Z,98.60
2018-10-02T21:11:31.366Z,98.60
2018-10-02T21:14:00.735Z,98.10
2018-10-02T21:16:32.872Z,98.20
2018-10-02T21:19:01.709Z,98.40
2018-10-02T21:21:29.901Z,99.10
2018-10-02T21:23:58.646Z,99.90
2018-10-02T21:26:26.776Z,99.90
2018-10-02T21:28:54.901Z,99.90
2018-10-02T21:31:23.114Z,99.90
2018-10-02T21:33:52.046Z,99.90
2018-10-02T21:36:21.786Z,99.90
2018-10-02T21:38:51.565Z,99.90
2018-10-02T21:41:21.685Z,99.90
2018-10-02T21:43:55.480Z,99.90
2018-10-02T21:46:26.579Z,99.90
2018-10-02T21:48:55.955Z,99.90
2018-10-02T21:51:24.125Z,99.90
2018-10-02T21:53:52.211Z,99.90
2018-10-02T21:56:20.319Z,99.90
2018-10-02T21:58:48.763Z,99.90
2018-10-02T22:01:16.910Z,99.90
2018-10-02T22:03:44.984Z,99.90
2018-10-02T22:06:13.111Z,99.90
2018-10-02T22:08:42.339Z,99.90
2018-10-02T22:11:10.496Z,99.90
2018-10-02T22:13:38.712Z,99.90
2018-10-02T22:16:06.898Z,99.90
2018-10-02T22:18:34.988Z,99.90
2018-10-02T22:21:03.094Z,99.90
2018-10-02T22:23:31.181Z,99.90
2018-10-02T22:25:59.401Z,99.90
2018-10-02T22:28:27.863Z,99.90
2018-10-02T22:30:55.963Z,99.90
2018-10-02T22:33:24.253Z,99.90
2018-10-02T22:35:52.291Z,99.90
2018-10-02T22:38:20.552Z,99.90
2018-10-02T22:40:49.510Z,99.90
2018-10-02T22:43:17.665Z,99.60
2018-10-02T22:45:45.724Z,99.50
2018-10-02T22:48:14.120Z,99.70
2018-10-02T22:50:42.346Z,99.90
2018-10-02T22:53:11.047Z,99.90
2018-10-02T22:55:39.636Z,99.90
2018-10-02T22:58:07.811Z,99.90
2018-10-02T23:00:36.706Z,99.90
2018-10-02T23:03:04.825Z,99.90
2018-10-02T23:05:32.909Z,99.90
2018-10-02T23:08:01.012Z,99.90
2018-10-02T23:10:29.769Z,99.90
2018-10-02T23:12:58.496Z,99.90
2018-10-02T23:15:26.600Z,99.90
2018-10-02T23:17:54.724Z,99.90
2018-10-02T23:20:22.821Z,99.90
2018-10-02T23:22:50.912Z,99.90
2018-10-02T23:25:20.027Z,99.90
2018-10-02T23:27:48.683Z,99.90
2018-10-02T23:30:16.800Z,99.90
2018-10-02T23:32:44.940Z,99.90
2018-10-02T23:35:13.037Z,99.90
2018-10-02T23:37:41.121Z,99.90
2018-10-02T23:40:09.306Z,99.90
2018-10-02T23:42:37.509Z,99.90
2018-10-02T23:45:05.768Z,99.90
2018-10-02T23:47:33.900Z,99.90
2018-10-02T23:50:03.114Z,99.90
2018-10-02T23:52:31.208Z,99.90
2018-10-02T23:54:59.384Z,99.90
2018-10-02T23:57:27.605Z,99.90
2018-10-02T23:59:55.707Z,99.90
